sensor_id;sensor_type;location;lat;lon;timestamp;temperature;humidity
26164;DHT22;13914;48.178;11.716;2024-02-26T00:01:26;5.30;9.90
26164;DHT22;13914;48.178;11.716;2024-02-26T00:03:52;5.30;9.90
26164;DHT22;13914;48.178;11.716;2024-02-26T00:06:19;5.20;9.80
26164;DHT22;13914;48.178;11.716;2024-02-26T00:08:46;5.20;9.80
26164;DHT22;13914;48.178;11.716;2024-02-26T00:11:12;5.20;9.90
26164;DHT22;13914;48.178;11.716;2024-02-26T00:13:38;5.10;9.80
26164;DHT22;13914;48.178;11.716;2024-02-26T00:16:03;5.10;9.80
26164;DHT22;13914;48.178;11.716;2024-02-26T00:18:29;5.10;9.80
26164;DHT22;13914;48.178;11.716;2024-02-26T00:20:55;5.00;9.80
26164;DHT22;13914;48.178;11.716;2024-02-26T00:23:21;5.00;9.80
26164;DHT22;13914;48.178;11.716;2024-02-26T00:25:46;5.00;9.80
26164;DHT22;13914;48.178;11.716;2024-02-26T00:28:13;4.90;9.80
26164;DHT22;13914;48.178;11.716;2024-02-26T00:30:38;4.90;9.80
26164;DHT22;13914;48.178;11.716;2024-02-26T00:33:04;4.90;9.90
26164;DHT22;13914;48.178;11.716;2024-02-26T00:35:30;4.90;9.80
26164;DHT22;13914;48.178;11.716;2024-02-26T00:37:55;4.80;9.80
26164;DHT22;13914;48.178;11.716;2024-02-26T00:40:21;4.80;9.90
26164;DHT22;13914;48.178;11.716;2024-02-26T00:42:47;4.80;9.80
26164;DHT22;13914;48.178;11.716;2024-02-26T00:45:13;4.70;9.80
26164;DHT22;13914;48.178;11.716;2024-02-26T00:47:39;4.70;9.70
26164;DHT22;13914;48.178;11.716;2024-02-26T00:50:06;4.70;9.80
26164;DHT22;13914;48.178;11.716;2024-02-26T00:52:33;4.60;9.70
26164;DHT22;13914;48.178;11.716;2024-02-26T00:54:59;4.60;9.70
26164;DHT22;13914;48.178;11.716;2024-02-26T00:57:25;4.50;9.60
26164;DHT22;13914;48.178;11.716;2024-02-26T00:59:51;4.50;9.70
26164;DHT22;13914;48.178;11.716;2024-02-26T01:02:16;4.50;9.70
26164;DHT22;13914;48.178;11.716;2024-02-26T01:04:42;4.40;9.70
26164;DHT22;13914;48.178;11.716;2024-02-26T01:07:08;4.40;9.70
26164;DHT22;13914;48.178;11.716;2024-02-26T01:09:34;4.40;9.70
26164;DHT22;13914;48.178;11.716;2024-02-26T01:12:00;4.40;9.80
26164;DHT22;13914;48.178;11.716;2024-02-26T01:14:25;4.30;9.80
26164;DHT22;13914;48.178;11.716;2024-02-26T01:16:51;4.30;9.70
26164;DHT22;13914;48.178;11.716;2024-02-26T01:19:17;4.30;9.80
26164;DHT22;13914;48.178;11.716;2024-02-26T01:21:42;4.20;9.70
26164;DHT22;13914;48.178;11.716;2024-02-26T01:24:08;4.20;9.80
26164;DHT22;13914;48.178;11.716;2024-02-26T01:26:34;4.20;9.80
26164;DHT22;13914;48.178;11.716;2024-02-26T01:28:59;4.20;9.80
26164;DHT22;13914;48.178;11.716;2024-02-26T01:31:25;4.10;9.80
26164;DHT22;13914;48.178;11.716;2024-02-26T01:33:51;4.10;9.80
26164;DHT22;13914;48.178;11.716;2024-02-26T01:36:18;4.10;9.80
26164;DHT22;13914;48.178;11.716;2024-02-26T01:38:43;4.00;9.80
26164;DHT22;13914;48.178;11.716;2024-02-26T01:41:09;4.00;9.90
26164;DHT22;13914;48.178;11.716;2024-02-26T01:43:34;4.00;9.90
26164;DHT22;13914;48.178;11.716;2024-02-26T01:46:00;3.90;9.80
26164;DHT22;13914;48.178;11.716;2024-02-26T01:48:26;3.90;9.90
26164;DHT22;13914;48.178;11.716;2024-02-26T01:50:52;3.90;9.90
26164;DHT22;13914;48.178;11.716;2024-02-26T01:53:17;3.90;9.90
26164;DHT22;13914;48.178;11.716;2024-02-26T01:55:44;3.80;9.90
26164;DHT22;13914;48.178;11.716;2024-02-26T01:58:10;3.80;9.90
26164;DHT22;13914;48.178;11.716;2024-02-26T02:00:36;3.80;9.90
26164;DHT22;13914;48.178;11.716;2024-02-26T02:03:02;3.80;9.90
26164;DHT22;13914;48.178;11.716;2024-02-26T02:05:29;3.70;9.90
26164;DHT22;13914;48.178;11.716;2024-02-26T02:07:55;3.60;9.90
26164;DHT22;13914;48.178;11.716;2024-02-26T02:10:21;3.70;10.00
26164;DHT22;13914;48.178;11.716;2024-02-26T02:12:51;3.70;10.00
26164;DHT22;13914;48.178;11.716;2024-02-26T02:15:16;3.60;10.00
26164;DHT22;13914;48.178;11.716;2024-02-26T02:17:42;3.60;10.00
26164;DHT22;13914;48.178;11.716;2024-02-26T02:20:08;3.60;10.10
26164;DHT22;13914;48.178;11.716;2024-02-26T02:22:41;3.50;10.00
26164;DHT22;13914;48.178;11.716;2024-02-26T02:25:07;3.50;10.00
26164;DHT22;13914;48.178;11.716;2024-02-26T02:27:33;3.50;10.00
26164;DHT22;13914;48.178;11.716;2024-02-26T02:29:59;3.50;10.00
26164;DHT22;13914;48.178;11.716;2024-02-26T02:32:24;3.50;10.10
26164;DHT22;13914;48.178;11.716;2024-02-26T02:34:50;3.40;10.00
26164;DHT22;13914;48.178;11.716;2024-02-26T02:37:16;3.40;10.10
26164;DHT22;13914;48.178;11.716;2024-02-26T02:39:43;3.40;10.10
26164;DHT22;13914;48.178;11.716;2024-02-26T02:42:09;3.40;10.10
26164;DHT22;13914;48.178;11.716;2024-02-26T02:44:34;3.30;10.10
26164;DHT22;13914;48.178;11.716;2024-02-26T02:47:00;3.40;10.20
26164;DHT22;13914;48.178;11.716;2024-02-26T02:49:26;3.30;10.10
26164;DHT22;13914;48.178;11.716;2024-02-26T02:51:51;3.30;10.10
26164;DHT22;13914;48.178;11.716;2024-02-26T02:54:19;3.30;10.10
26164;DHT22;13914;48.178;11.716;2024-02-26T02:56:45;3.30;10.20
26164;DHT22;13914;48.178;11.716;2024-02-26T02:59:11;3.30;10.10
26164;DHT22;13914;48.178;11.716;2024-02-26T03:01:37;3.30;10.20
26164;DHT22;13914;48.178;11.716;2024-02-26T03:04:02;3.20;10.20
26164;DHT22;13914;48.178;11.716;2024-02-26T03:06:28;3.20;10.20
26164;DHT22;13914;48.178;11.716;2024-02-26T03:08:54;3.20;10.20
26164;DHT22;13914;48.178;11.716;2024-02-26T03:11:20;3.20;10.20
26164;DHT22;13914;48.178;11.716;2024-02-26T03:13:46;3.20;10.20
26164;DHT22;13914;48.178;11.716;2024-02-26T03:16:11;3.10;10.30
26164;DHT22;13914;48.178;11.716;2024-02-26T03:18:40;3.10;10.30
26164;DHT22;13914;48.178;11.716;2024-02-26T03:21:06;3.10;10.30
26164;DHT22;13914;48.178;11.716;2024-02-26T03:23:32;3.10;10.30
26164;DHT22;13914;48.178;11.716;2024-02-26T03:26:04;3.10;10.30
26164;DHT22;13914;48.178;11.716;2024-02-26T03:28:31;3.10;10.30
26164;DHT22;13914;48.178;11.716;2024-02-26T03:30:59;3.10;10.20
26164;DHT22;13914;48.178;11.716;2024-02-26T03:33:25;3.00;10.20
26164;DHT22;13914;48.178;11.716;2024-02-26T03:35:50;3.00;10.30
26164;DHT22;13914;48.178;11.716;2024-02-26T03:38:16;3.00;10.20
26164;DHT22;13914;48.178;11.716;2024-02-26T03:40:42;3.00;10.30
26164;DHT22;13914;48.178;11.716;2024-02-26T03:43:08;3.00;10.20
26164;DHT22;13914;48.178;11.716;2024-02-26T03:45:33;3.00;10.30
26164;DHT22;13914;48.178;11.716;2024-02-26T03:47:59;3.00;10.30
26164;DHT22;13914;48.178;11.716;2024-02-26T03:50:25;2.90;10.20
26164;DHT22;13914;48.178;11.716;2024-02-26T03:52:50;3.00;10.30
26164;DHT22;13914;48.178;11.716;2024-02-26T03:55:16;2.90;10.20
26164;DHT22;13914;48.178;11.716;2024-02-26T03:57:46;2.90;10.30
26164;DHT22;13914;48.178;11.716;2024-02-26T04:00:12;2.90;10.30
26164;DHT22;13914;48.178;11.716;2024-02-26T04:02:38;2.90;10.30
26164;DHT22;13914;48.178;11.716;2024-02-26T04:05:04;2.90;10.20
26164;DHT22;13914;48.178;11.716;2024-02-26T04:07:30;2.90;10.20
26164;DHT22;13914;48.178;11.716;2024-02-26T04:09:56;2.90;10.30
26164;DHT22;13914;48.178;11.716;2024-02-26T04:12:24;2.90;10.30
26164;DHT22;13914;48.178;11.716;2024-02-26T04:14:50;2.80;10.30
26164;DHT22;13914;48.178;11.716;2024-02-26T04:17:15;2.80;10.30
26164;DHT22;13914;48.178;11.716;2024-02-26T04:19:41;2.80;10.40
26164;DHT22;13914;48.178;11.716;2024-02-26T04:22:07;2.80;10.30
26164;DHT22;13914;48.178;11.716;2024-02-26T04:24:32;2.80;10.30
26164;DHT22;13914;48.178;11.716;2024-02-26T04:26:58;2.80;10.30
26164;DHT22;13914;48.178;11.716;2024-02-26T04:29:24;2.80;10.30
26164;DHT22;13914;48.178;11.716;2024-02-26T04:31:49;2.80;10.30
26164;DHT22;13914;48.178;11.716;2024-02-26T04:34:15;2.80;10.30
26164;DHT22;13914;48.178;11.716;2024-02-26T04:36:41;2.70;10.30
26164;DHT22;13914;48.178;11.716;2024-02-26T04:39:08;2.70;10.40
26164;DHT22;13914;48.178;11.716;2024-02-26T04:41:33;2.70;10.30
26164;DHT22;13914;48.178;11.716;2024-02-26T04:43:59;2.70;10.40
26164;DHT22;13914;48.178;11.716;2024-02-26T04:46:25;2.70;10.40
26164;DHT22;13914;48.178;11.716;2024-02-26T04:48:50;2.60;10.30
26164;DHT22;13914;48.178;11.716;2024-02-26T04:51:16;2.70;10.40
26164;DHT22;13914;48.178;11.716;2024-02-26T04:53:42;2.70;11.00
26164;DHT22;13914;48.178;11.716;2024-02-26T04:56:07;2.70;10.40
26164;DHT22;13914;48.178;11.716;2024-02-26T04:58:33;2.70;10.50
26164;DHT22;13914;48.178;11.716;2024-02-26T05:00:59;2.60;10.40
26164;DHT22;13914;48.178;11.716;2024-02-26T05:03:25;2.60;10.50
26164;DHT22;13914;48.178;11.716;2024-02-26T05:05:50;2.60;10.50
26164;DHT22;13914;48.178;11.716;2024-02-26T05:08:16;2.60;10.50
26164;DHT22;13914;48.178;11.716;2024-02-26T05:10:42;2.60;10.50
26164;DHT22;13914;48.178;11.716;2024-02-26T05:13:08;2.60;10.50
26164;DHT22;13914;48.178;11.716;2024-02-26T05:15:34;2.60;10.50
26164;DHT22;13914;48.178;11.716;2024-02-26T05:18:00;2.60;10.50
26164;DHT22;13914;48.178;11.716;2024-02-26T05:20:26;2.60;10.50
26164;DHT22;13914;48.178;11.716;2024-02-26T05:22:53;2.60;10.50
26164;DHT22;13914;48.178;11.716;2024-02-26T05:25:18;2.60;10.50
26164;DHT22;13914;48.178;11.716;2024-02-26T05:27:44;2.60;10.50
26164;DHT22;13914;48.178;11.716;2024-02-26T05:30:10;2.60;10.50
26164;DHT22;13914;48.178;11.716;2024-02-26T05:32:37;2.60;10.50
26164;DHT22;13914;48.178;11.716;2024-02-26T05:35:03;2.60;10.50
26164;DHT22;13914;48.178;11.716;2024-02-26T05:37:29;2.60;10.50
26164;DHT22;13914;48.178;11.716;2024-02-26T05:39:55;2.60;10.50
26164;DHT22;13914;48.178;11.716;2024-02-26T05:42:21;2.60;10.50
26164;DHT22;13914;48.178;11.716;2024-02-26T05:44:46;2.60;10.50
26164;DHT22;13914;48.178;11.716;2024-02-26T05:47:12;2.50;10.50
26164;DHT22;13914;48.178;11.716;2024-02-26T05:49:39;2.50;10.40
26164;DHT22;13914;48.178;11.716;2024-02-26T05:52:05;2.50;10.50
26164;DHT22;13914;48.178;11.716;2024-02-26T05:54:31;2.60;10.50
26164;DHT22;13914;48.178;11.716;2024-02-26T05:56:57;2.50;10.50
26164;DHT22;13914;48.178;11.716;2024-02-26T05:59:23;2.60;10.50
26164;DHT22;13914;48.178;11.716;2024-02-26T06:01:49;2.50;10.40
26164;DHT22;13914;48.178;11.716;2024-02-26T06:04:14;2.50;10.40
26164;DHT22;13914;48.178;11.716;2024-02-26T06:06:42;2.50;10.40
26164;DHT22;13914;48.178;11.716;2024-02-26T06:09:08;2.50;10.40
26164;DHT22;13914;48.178;11.716;2024-02-26T06:11:33;2.50;10.40
26164;DHT22;13914;48.178;11.716;2024-02-26T06:13:59;2.50;10.40
26164;DHT22;13914;48.178;11.716;2024-02-26T06:16:24;2.50;10.40
26164;DHT22;13914;48.178;11.716;2024-02-26T06:18:50;2.50;10.30
26164;DHT22;13914;48.178;11.716;2024-02-26T06:21:16;2.50;10.30
26164;DHT22;13914;48.178;11.716;2024-02-26T06:23:41;2.50;10.40
26164;DHT22;13914;48.178;11.716;2024-02-26T06:26:07;2.50;10.30
26164;DHT22;13914;48.178;11.716;2024-02-26T06:28:33;2.50;10.40
26164;DHT22;13914;48.178;11.716;2024-02-26T06:31:01;2.50;10.40
26164;DHT22;13914;48.178;11.716;2024-02-26T06:33:27;2.40;10.40
26164;DHT22;13914;48.178;11.716;2024-02-26T06:35:53;2.40;10.50
26164;DHT22;13914;48.178;11.716;2024-02-26T06:38:19;2.50;10.50
26164;DHT22;13914;48.178;11.716;2024-02-26T06:40:45;2.40;11.10
26164;DHT22;13914;48.178;11.716;2024-02-26T06:43:11;2.40;10.50
26164;DHT22;13914;48.178;11.716;2024-02-26T06:45:37;2.40;10.80
26164;DHT22;13914;48.178;11.716;2024-02-26T06:48:02;2.40;10.60
26164;DHT22;13914;48.178;11.716;2024-02-26T06:50:28;2.40;10.60
26164;DHT22;13914;48.178;11.716;2024-02-26T06:52:54;2.40;10.60
26164;DHT22;13914;48.178;11.716;2024-02-26T06:55:19;2.40;10.60
26164;DHT22;13914;48.178;11.716;2024-02-26T06:57:45;2.50;10.70
26164;DHT22;13914;48.178;11.716;2024-02-26T07:00:11;2.50;10.70
26164;DHT22;13914;48.178;11.716;2024-02-26T07:02:40;2.50;10.80
26164;DHT22;13914;48.178;11.716;2024-02-26T07:05:06;2.50;10.80
26164;DHT22;13914;48.178;11.716;2024-02-26T07:07:32;2.50;10.80
26164;DHT22;13914;48.178;11.716;2024-02-26T07:09:57;2.50;10.80
26164;DHT22;13914;48.178;11.716;2024-02-26T07:12:23;2.50;10.70
26164;DHT22;13914;48.178;11.716;2024-02-26T07:14:49;2.50;10.80
26164;DHT22;13914;48.178;11.716;2024-02-26T07:17:15;2.50;10.80
26164;DHT22;13914;48.178;11.716;2024-02-26T07:19:41;2.50;10.80
26164;DHT22;13914;48.178;11.716;2024-02-26T07:22:07;2.60;11.00
26164;DHT22;13914;48.178;11.716;2024-02-26T07:24:33;2.60;10.90
26164;DHT22;13914;48.178;11.716;2024-02-26T07:26:59;2.60;11.00
26164;DHT22;13914;48.178;11.716;2024-02-26T07:29:25;2.60;11.00
26164;DHT22;13914;48.178;11.716;2024-02-26T07:31:50;2.70;11.10
26164;DHT22;13914;48.178;11.716;2024-02-26T07:34:16;2.70;11.10
26164;DHT22;13914;48.178;11.716;2024-02-26T07:36:42;2.70;11.10
26164;DHT22;13914;48.178;11.716;2024-02-26T07:39:08;2.70;11.10
26164;DHT22;13914;48.178;11.716;2024-02-26T07:41:33;2.80;11.10
26164;DHT22;13914;48.178;11.716;2024-02-26T07:43:59;2.80;11.20
26164;DHT22;13914;48.178;11.716;2024-02-26T07:46:25;2.80;11.30
26164;DHT22;13914;48.178;11.716;2024-02-26T07:48:50;2.80;11.30
26164;DHT22;13914;48.178;11.716;2024-02-26T07:51:16;2.90;11.30
26164;DHT22;13914;48.178;11.716;2024-02-26T07:53:43;2.90;11.30
26164;DHT22;13914;48.178;11.716;2024-02-26T07:56:08;2.90;11.30
26164;DHT22;13914;48.178;11.716;2024-02-26T07:58:34;2.90;11.30
26164;DHT22;13914;48.178;11.716;2024-02-26T08:01:00;3.00;11.30
26164;DHT22;13914;48.178;11.716;2024-02-26T08:03:26;3.00;11.40
26164;DHT22;13914;48.178;11.716;2024-02-26T08:05:52;3.10;11.50
26164;DHT22;13914;48.178;11.716;2024-02-26T08:08:18;3.10;11.40
26164;DHT22;13914;48.178;11.716;2024-02-26T08:10:43;3.10;11.50
26164;DHT22;13914;48.178;11.716;2024-02-26T08:13:09;3.20;11.50
26164;DHT22;13914;48.178;11.716;2024-02-26T08:15:35;3.20;11.50
26164;DHT22;13914;48.178;11.716;2024-02-26T08:18:01;3.20;11.60
26164;DHT22;13914;48.178;11.716;2024-02-26T08:20:30;3.30;11.80
26164;DHT22;13914;48.178;11.716;2024-02-26T08:22:56;3.30;11.90
26164;DHT22;13914;48.178;11.716;2024-02-26T08:25:22;3.30;11.80
26164;DHT22;13914;48.178;11.716;2024-02-26T08:27:48;3.40;11.90
26164;DHT22;13914;48.178;11.716;2024-02-26T08:30:14;3.40;11.90
26164;DHT22;13914;48.178;11.716;2024-02-26T08:32:45;3.40;11.80
26164;DHT22;13914;48.178;11.716;2024-02-26T08:35:11;3.50;11.80
26164;DHT22;13914;48.178;11.716;2024-02-26T08:37:37;3.60;11.90
26164;DHT22;13914;48.178;11.716;2024-02-26T08:40:02;3.60;11.80
26164;DHT22;13914;48.178;11.716;2024-02-26T08:42:29;3.60;11.80
26164;DHT22;13914;48.178;11.716;2024-02-26T08:44:55;3.70;11.80
26164;DHT22;13914;48.178;11.716;2024-02-26T08:47:21;3.70;11.70
26164;DHT22;13914;48.178;11.716;2024-02-26T08:49:46;3.80;11.70
26164;DHT22;13914;48.178;11.716;2024-02-26T08:52:12;3.80;11.70
26164;DHT22;13914;48.178;11.716;2024-02-26T08:54:39;3.90;11.70
26164;DHT22;13914;48.178;11.716;2024-02-26T08:57:05;3.90;11.70
26164;DHT22;13914;48.178;11.716;2024-02-26T08:59:31;4.00;11.80
26164;DHT22;13914;48.178;11.716;2024-02-26T09:01:57;4.00;11.80
26164;DHT22;13914;48.178;11.716;2024-02-26T09:04:22;4.10;11.80
26164;DHT22;13914;48.178;11.716;2024-02-26T09:06:48;4.20;11.80
26164;DHT22;13914;48.178;11.716;2024-02-26T09:09:14;4.20;11.90
26164;DHT22;13914;48.178;11.716;2024-02-26T09:11:40;4.30;11.90
26164;DHT22;13914;48.178;11.716;2024-02-26T09:14:05;4.30;11.90
26164;DHT22;13914;48.178;11.716;2024-02-26T09:16:31;4.40;12.10
26164;DHT22;13914;48.178;11.716;2024-02-26T09:18:57;4.40;12.10
26164;DHT22;13914;48.178;11.716;2024-02-26T09:21:22;4.50;12.20
26164;DHT22;13914;48.178;11.716;2024-02-26T09:23:50;4.60;12.30
26164;DHT22;13914;48.178;11.716;2024-02-26T09:26:16;4.70;12.40
26164;DHT22;13914;48.178;11.716;2024-02-26T09:28:43;4.70;12.50
26164;DHT22;13914;48.178;11.716;2024-02-26T09:31:09;4.80;12.50
26164;DHT22;13914;48.178;11.716;2024-02-26T09:33:35;4.90;12.60
26164;DHT22;13914;48.178;11.716;2024-02-26T09:36:01;5.00;12.60
26164;DHT22;13914;48.178;11.716;2024-02-26T09:38:27;5.10;12.90
26164;DHT22;13914;48.178;11.716;2024-02-26T09:40:53;5.10;12.70
26164;DHT22;13914;48.178;11.716;2024-02-26T09:43:21;5.20;12.80
26164;DHT22;13914;48.178;11.716;2024-02-26T09:45:47;5.20;12.80
26164;DHT22;13914;48.178;11.716;2024-02-26T09:48:13;5.30;12.80
26164;DHT22;13914;48.178;11.716;2024-02-26T09:50:40;5.40;12.70
26164;DHT22;13914;48.178;11.716;2024-02-26T09:53:06;5.50;12.60
26164;DHT22;13914;48.178;11.716;2024-02-26T09:55:35;5.50;12.60
26164;DHT22;13914;48.178;11.716;2024-02-26T09:58:01;5.60;12.60
26164;DHT22;13914;48.178;11.716;2024-02-26T10:00:27;5.70;12.60
26164;DHT22;13914;48.178;11.716;2024-02-26T10:02:59;5.80;12.50
26164;DHT22;13914;48.178;11.716;2024-02-26T10:05:29;5.90;12.60
26164;DHT22;13914;48.178;11.716;2024-02-26T10:07:55;6.00;12.40
26164;DHT22;13914;48.178;11.716;2024-02-26T10:10:23;6.00;12.40
26164;DHT22;13914;48.178;11.716;2024-02-26T10:12:48;6.10;12.40
26164;DHT22;13914;48.178;11.716;2024-02-26T10:15:14;6.20;13.00
26164;DHT22;13914;48.178;11.716;2024-02-26T10:17:41;6.30;12.40
26164;DHT22;13914;48.178;11.716;2024-02-26T10:20:16;6.40;12.30
26164;DHT22;13914;48.178;11.716;2024-02-26T10:22:46;6.40;12.20
26164;DHT22;13914;48.178;11.716;2024-02-26T10:25:11;6.50;12.10
26164;DHT22;13914;48.178;11.716;2024-02-26T10:27:37;6.60;11.90
26164;DHT22;13914;48.178;11.716;2024-02-26T10:30:24;6.70;12.00
26164;DHT22;13914;48.178;11.716;2024-02-26T10:32:51;6.80;12.00
26164;DHT22;13914;48.178;11.716;2024-02-26T10:35:17;6.80;11.90
26164;DHT22;13914;48.178;11.716;2024-02-26T10:37:44;6.90;11.80
26164;DHT22;13914;48.178;11.716;2024-02-26T10:40:10;6.90;11.70
26164;DHT22;13914;48.178;11.716;2024-02-26T10:42:36;7.00;11.80
26164;DHT22;13914;48.178;11.716;2024-02-26T10:45:03;7.10;11.70
26164;DHT22;13914;48.178;11.716;2024-02-26T10:47:30;7.20;11.70
26164;DHT22;13914;48.178;11.716;2024-02-26T10:49:57;7.20;11.70
26164;DHT22;13914;48.178;11.716;2024-02-26T10:52:22;7.30;11.60
26164;DHT22;13914;48.178;11.716;2024-02-26T10:54:50;7.40;11.60
26164;DHT22;13914;48.178;11.716;2024-02-26T10:57:19;7.40;11.60
26164;DHT22;13914;48.178;11.716;2024-02-26T10:59:45;7.50;11.40
26164;DHT22;13914;48.178;11.716;2024-02-26T11:02:10;7.60;11.40
26164;DHT22;13914;48.178;11.716;2024-02-26T11:04:38;7.60;11.60
26164;DHT22;13914;48.178;11.716;2024-02-26T11:07:04;7.70;12.10
26164;DHT22;13914;48.178;11.716;2024-02-26T11:09:31;7.80;11.70
26164;DHT22;13914;48.178;11.716;2024-02-26T11:11:57;7.80;11.60
26164;DHT22;13914;48.178;11.716;2024-02-26T11:14:23;7.90;11.70
26164;DHT22;13914;48.178;11.716;2024-02-26T11:16:51;8.00;11.70
26164;DHT22;13914;48.178;11.716;2024-02-26T11:19:17;8.00;11.60
26164;DHT22;13914;48.178;11.716;2024-02-26T11:21:43;8.10;11.80
26164;DHT22;13914;48.178;11.716;2024-02-26T11:24:13;8.20;11.50
26164;DHT22;13914;48.178;11.716;2024-02-26T11:26:41;8.30;11.60
26164;DHT22;13914;48.178;11.716;2024-02-26T11:29:11;8.30;11.50
26164;DHT22;13914;48.178;11.716;2024-02-26T11:31:39;8.40;11.40
26164;DHT22;13914;48.178;11.716;2024-02-26T11:34:06;8.50;11.50
26164;DHT22;13914;48.178;11.716;2024-02-26T11:36:32;8.60;11.70
26164;DHT22;13914;48.178;11.716;2024-02-26T11:38:58;8.60;11.70
26164;DHT22;13914;48.178;11.716;2024-02-26T11:41:24;8.80;11.80
26164;DHT22;13914;48.178;11.716;2024-02-26T11:46:32;8.90;12.00
26164;DHT22;13914;48.178;11.716;2024-02-26T11:48:59;9.00;11.70
26164;DHT22;13914;48.178;11.716;2024-02-26T11:51:33;9.10;11.70
26164;DHT22;13914;48.178;11.716;2024-02-26T11:54:00;9.20;11.70
26164;DHT22;13914;48.178;11.716;2024-02-26T11:56:26;9.30;11.60
26164;DHT22;13914;48.178;11.716;2024-02-26T12:01:46;9.50;11.20
26164;DHT22;13914;48.178;11.716;2024-02-26T12:04:14;9.60;11.30
26164;DHT22;13914;48.178;11.716;2024-02-26T12:06:42;9.70;11.30
26164;DHT22;13914;48.178;11.716;2024-02-26T12:09:30;9.80;11.20
26164;DHT22;13914;48.178;11.716;2024-02-26T12:12:03;9.90;11.20
26164;DHT22;13914;48.178;11.716;2024-02-26T12:14:32;10.00;11.30
26164;DHT22;13914;48.178;11.716;2024-02-26T12:16:58;10.10;11.40
26164;DHT22;13914;48.178;11.716;2024-02-26T12:19:24;10.20;11.40
26164;DHT22;13914;48.178;11.716;2024-02-26T12:21:51;10.30;11.20
26164;DHT22;13914;48.178;11.716;2024-02-26T12:24:18;10.40;11.10
26164;DHT22;13914;48.178;11.716;2024-02-26T12:26:45;10.50;11.40
26164;DHT22;13914;48.178;11.716;2024-02-26T12:29:11;10.60;11.20
26164;DHT22;13914;48.178;11.716;2024-02-26T12:31:37;10.70;11.20
26164;DHT22;13914;48.178;11.716;2024-02-26T12:34:04;10.70;11.00
26164;DHT22;13914;48.178;11.716;2024-02-26T12:36:30;10.80;10.90
26164;DHT22;13914;48.178;11.716;2024-02-26T12:38:56;11.00;10.80
26164;DHT22;13914;48.178;11.716;2024-02-26T12:41:22;11.00;10.60
26164;DHT22;13914;48.178;11.716;2024-02-26T12:43:48;11.10;10.40
26164;DHT22;13914;48.178;11.716;2024-02-26T12:46:14;11.30;10.10
26164;DHT22;13914;48.178;11.716;2024-02-26T12:48:42;11.20;9.90
26164;DHT22;13914;48.178;11.716;2024-02-26T12:51:09;11.20;9.70
26164;DHT22;13914;48.178;11.716;2024-02-26T12:53:36;11.30;9.20
26164;DHT22;13914;48.178;11.716;2024-02-26T12:56:03;11.40;9.30
26164;DHT22;13914;48.178;11.716;2024-02-26T12:58:29;11.50;9.10
26164;DHT22;13914;48.178;11.716;2024-02-26T13:00:56;11.60;9.10
26164;DHT22;13914;48.178;11.716;2024-02-26T13:03:22;11.60;9.00
26164;DHT22;13914;48.178;11.716;2024-02-26T13:05:48;11.60;8.70
26164;DHT22;13914;48.178;11.716;2024-02-26T13:08:17;11.60;8.70
26164;DHT22;13914;48.178;11.716;2024-02-26T13:10:45;11.60;8.30
26164;DHT22;13914;48.178;11.716;2024-02-26T13:13:11;11.70;8.20
26164;DHT22;13914;48.178;11.716;2024-02-26T13:15:36;11.80;8.50
26164;DHT22;13914;48.178;11.716;2024-02-26T13:18:14;11.80;8.20
26164;DHT22;13914;48.178;11.716;2024-02-26T13:20:40;11.90;8.10
26164;DHT22;13914;48.178;11.716;2024-02-26T13:23:07;11.90;8.20
26164;DHT22;13914;48.178;11.716;2024-02-26T13:25:34;12.00;8.30
26164;DHT22;13914;48.178;11.716;2024-02-26T13:28:14;12.00;7.90
26164;DHT22;13914;48.178;11.716;2024-02-26T13:30:51;12.10;8.50
26164;DHT22;13914;48.178;11.716;2024-02-26T13:33:18;12.10;8.30
26164;DHT22;13914;48.178;11.716;2024-02-26T13:35:44;12.20;8.60
26164;DHT22;13914;48.178;11.716;2024-02-26T13:38:10;12.30;8.40
26164;DHT22;13914;48.178;11.716;2024-02-26T13:40:36;12.40;8.30
26164;DHT22;13914;48.178;11.716;2024-02-26T13:43:02;12.40;8.60
26164;DHT22;13914;48.178;11.716;2024-02-26T13:45:28;12.50;8.10
26164;DHT22;13914;48.178;11.716;2024-02-26T13:47:54;12.50;8.20
26164;DHT22;13914;48.178;11.716;2024-02-26T13:50:19;12.60;8.30
26164;DHT22;13914;48.178;11.716;2024-02-26T13:52:48;12.60;8.20
26164;DHT22;13914;48.178;11.716;2024-02-26T13:55:18;12.60;7.80
26164;DHT22;13914;48.178;11.716;2024-02-26T13:57:44;12.70;7.80
26164;DHT22;13914;48.178;11.716;2024-02-26T14:00:10;12.80;8.20
26164;DHT22;13914;48.178;11.716;2024-02-26T14:02:36;12.80;7.50
26164;DHT22;13914;48.178;11.716;2024-02-26T14:05:02;12.70;7.40
26164;DHT22;13914;48.178;11.716;2024-02-26T14:07:30;12.80;7.30
26164;DHT22;13914;48.178;11.716;2024-02-26T14:09:59;13.00;7.30
26164;DHT22;13914;48.178;11.716;2024-02-26T14:12:24;12.90;7.10
26164;DHT22;13914;48.178;11.716;2024-02-26T14:14:50;12.90;6.90
26164;DHT22;13914;48.178;11.716;2024-02-26T14:17:18;12.90;6.10
26164;DHT22;13914;48.178;11.716;2024-02-26T14:19:44;12.80;6.30
26164;DHT22;13914;48.178;11.716;2024-02-26T14:22:13;12.90;6.90
26164;DHT22;13914;48.178;11.716;2024-02-26T14:24:39;13.00;7.20
26164;DHT22;13914;48.178;11.716;2024-02-26T14:27:06;13.00;6.00
26164;DHT22;13914;48.178;11.716;2024-02-26T14:29:34;13.00;6.20
26164;DHT22;13914;48.178;11.716;2024-02-26T14:32:00;13.00;6.20
26164;DHT22;13914;48.178;11.716;2024-02-26T14:34:26;13.00;6.00
26164;DHT22;13914;48.178;11.716;2024-02-26T14:36:52;12.90;5.60
26164;DHT22;13914;48.178;11.716;2024-02-26T14:39:18;13.00;6.00
26164;DHT22;13914;48.178;11.716;2024-02-26T14:41:43;13.00;5.40
26164;DHT22;13914;48.178;11.716;2024-02-26T14:44:09;12.90;5.40
26164;DHT22;13914;48.178;11.716;2024-02-26T14:46:35;12.90;5.80
26164;DHT22;13914;48.178;11.716;2024-02-26T14:49:01;12.90;5.80
26164;DHT22;13914;48.178;11.716;2024-02-26T14:51:27;12.90;5.30
26164;DHT22;13914;48.178;11.716;2024-02-26T14:53:53;12.90;5.20
26164;DHT22;13914;48.178;11.716;2024-02-26T14:56:18;12.80;5.30
26164;DHT22;13914;48.178;11.716;2024-02-26T14:58:44;12.80;5.30
26164;DHT22;13914;48.178;11.716;2024-02-26T15:01:11;12.80;5.30
26164;DHT22;13914;48.178;11.716;2024-02-26T15:03:37;12.80;5.50
26164;DHT22;13914;48.178;11.716;2024-02-26T15:06:03;12.80;5.30
26164;DHT22;13914;48.178;11.716;2024-02-26T15:08:29;12.80;4.90
26164;DHT22;13914;48.178;11.716;2024-02-26T15:10:54;12.80;5.10
26164;DHT22;13914;48.178;11.716;2024-02-26T15:13:20;12.70;4.80
26164;DHT22;13914;48.178;11.716;2024-02-26T15:15:46;12.70;4.80
26164;DHT22;13914;48.178;11.716;2024-02-26T15:18:12;12.60;4.80
26164;DHT22;13914;48.178;11.716;2024-02-26T15:20:41;12.60;5.30
26164;DHT22;13914;48.178;11.716;2024-02-26T15:23:08;12.60;5.10
26164;DHT22;13914;48.178;11.716;2024-02-26T15:25:34;12.60;5.50
26164;DHT22;13914;48.178;11.716;2024-02-26T15:28:00;12.50;5.70
26164;DHT22;13914;48.178;11.716;2024-02-26T15:30:26;12.50;5.50
26164;DHT22;13914;48.178;11.716;2024-02-26T15:32:58;12.50;5.50